createdAt,value
2023-04-23T06:00:43.411Z,56.41
2023-04-23T06:03:11.424Z,55.86
2023-04-23T06:05:39.653Z,55.89
2023-04-23T06:08:07.800Z,55.21
2023-04-23T06:10:35.979Z,54.90
2023-04-23T06:13:03.937Z,54.66
2023-04-23T06:15:31.920Z,54.70
2023-04-23T06:18:01.925Z,54.96
2023-04-23T06:20:30.443Z,54.42
2023-04-23T06:23:00.450Z,54.44
2023-04-23T06:25:29.582Z,54.49
2023-04-23T06:27:59.028Z,54.09
2023-04-23T06:30:26.923Z,54.37
2023-04-23T06:32:56.209Z,54.06
2023-04-23T06:35:25.530Z,53.66
2023-04-23T06:37:54.512Z,53.21
2023-04-23T06:40:22.887Z,52.88
2023-04-23T06:42:52.100Z,52.51
2023-04-23T06:45:20.911Z,52.20
2023-04-23T06:47:50.068Z,52.02
2023-04-23T06:50:19.483Z,51.78
2023-04-23T06:52:50.138Z,51.55
2023-04-23T06:55:18.396Z,51.28
2023-04-23T06:57:47.693Z,51.13
2023-04-23T07:00:16.195Z,51.32
2023-04-23T07:02:44.234Z,51.13
2023-04-23T07:05:15.114Z,50.55
2023-04-23T07:07:43.639Z,50.66
2023-04-23T07:10:17.584Z,50.69
2023-04-23T07:12:51.027Z,50.64
2023-04-23T07:15:19.293Z,50.58
2023-04-23T07:17:52.964Z,50.29
2023-04-23T07:20:30.301Z,50.15
2023-04-23T07:28:32.501Z,47.23
2023-04-23T07:56:54.519Z,35.54
2023-04-23T08:00:21.806Z,34.29
2023-04-23T08:02:49.642Z,34.56
2023-04-23T08:09:05.354Z,32.94
2023-04-23T08:36:21.394Z,28.46
2023-04-23T08:39:30.821Z,26.92
2023-04-23T08:45:48.490Z,25.96
2023-04-23T08:48:17.728Z,25.70
2023-04-23T08:50:45.824Z,25.71
2023-04-23T08:53:14.159Z,26.55
2023-04-23T08:55:41.929Z,26.51
2023-04-23T08:58:10.146Z,26.49
2023-04-23T09:00:38.568Z,26.48
2023-04-23T09:03:09.076Z,26.01
2023-04-23T09:05:40.263Z,25.51
2023-04-23T09:08:09.306Z,25.66
2023-04-23T09:10:37.917Z,24.86
2023-04-23T09:13:07.170Z,25.45
2023-04-23T09:15:37.065Z,26.29
2023-04-23T09:18:06.017Z,26.38
2023-04-23T09:20:34.248Z,27.49
2023-04-23T09:23:04.369Z,27.69
2023-04-23T09:25:34.511Z,27.39
2023-04-23T09:28:03.261Z,27.06
2023-04-23T09:30:31.520Z,26.79
2023-04-23T09:32:59.703Z,27.35
2023-04-23T09:35:28.137Z,27.42
2023-04-23T09:37:56.274Z,27.65
2023-04-23T09:40:26.976Z,28.42
2023-04-23T09:42:55.171Z,27.30
2023-04-23T09:45:25.261Z,26.96
2023-04-23T09:47:53.903Z,27.95
2023-04-23T09:50:22.273Z,27.99
2023-04-23T09:52:56.330Z,28.80
2023-04-23T09:55:32.056Z,29.01
2023-04-23T09:58:02.771Z,29.55
2023-04-23T10:00:34.294Z,30.12
2023-04-23T10:03:03.072Z,29.90
2023-04-23T10:05:45.001Z,30.31
2023-04-23T10:08:20.704Z,29.68
2023-04-23T10:13:21.515Z,29.97
2023-04-23T10:15:49.704Z,29.69
2023-04-23T10:18:17.838Z,30.31
2023-04-23T10:20:46.115Z,29.98
2023-04-23T10:23:14.324Z,30.06
2023-04-23T10:25:42.491Z,29.04
2023-04-23T10:28:12.146Z,29.59
2023-04-23T10:30:41.532Z,29.53
2023-04-23T10:33:18.699Z,29.26
2023-04-23T10:35:50.896Z,29.88
2023-04-23T10:38:19.206Z,29.84
2023-04-23T10:40:47.628Z,29.82
2023-04-23T10:43:17.117Z,29.55
2023-04-23T10:45:45.776Z,29.07
2023-04-23T10:48:14.425Z,28.20
2023-04-23T10:51:02.336Z,26.63
2023-04-23T10:53:33.217Z,27.51
2023-04-23T10:56:08.111Z,27.71
2023-04-23T10:58:53.026Z,27.49
2023-04-23T11:01:22.211Z,27.97
2023-04-23T11:03:50.442Z,28.79
2023-04-23T11:06:21.481Z,29.06
2023-04-23T11:08:53.990Z,29.63
2023-04-23T11:11:26.875Z,30.34
2023-04-23T11:13:57.275Z,30.90
2023-04-23T11:16:26.555Z,30.83
2023-04-23T11:19:12.993Z,30.83
2023-04-23T11:22:01.019Z,30.58
2023-04-23T11:24:29.965Z,30.92
2023-04-23T11:26:58.081Z,30.56
2023-04-23T11:29:28.588Z,30.16
2023-04-23T11:34:28.171Z,27.61
2023-04-23T11:36:56.840Z,26.30
2023-04-23T11:39:25.794Z,26.53
2023-04-23T11:41:54.434Z,27.29
2023-04-23T11:44:22.775Z,26.79
2023-04-23T11:46:52.150Z,27.45
2023-04-23T11:49:20.697Z,27.64
2023-04-23T11:51:48.955Z,27.99
2023-04-23T11:54:16.761Z,27.35
2023-04-23T11:59:18.928Z,28.02
2023-04-23T12:01:47.416Z,28.01
2023-04-23T12:04:17.422Z,28.41
2023-04-23T12:06:46.094Z,28.33
2023-04-23T12:09:14.297Z,27.68
2023-04-23T12:11:42.190Z,27.61
2023-04-23T12:14:10.535Z,27.58
2023-04-23T12:16:40.212Z,27.65
2023-04-23T12:19:11.456Z,27.49
2023-04-23T12:21:54.666Z,27.63
2023-04-23T12:24:23.649Z,27.65
2023-04-23T12:26:54.761Z,28.07
2023-04-23T12:29:23.016Z,27.89
2023-04-23T12:31:52.115Z,27.31
2023-04-23T12:34:21.220Z,27.73
2023-04-23T12:36:51.157Z,28.69
2023-04-23T12:39:23.545Z,28.64
2023-04-23T12:48:56.530Z,28.77
2023-04-23T12:56:55.607Z,29.60
2023-04-23T15:56:40.241Z,36.87
2023-04-23T16:02:56.501Z,37.53
2023-04-23T16:05:28.776Z,37.39
2023-04-23T16:08:00.056Z,37.44
2023-04-23T16:10:47.417Z,37.44
2023-04-23T16:13:16.471Z,37.67
2023-04-23T16:15:45.346Z,37.83
2023-04-23T16:18:22.213Z,38.69
2023-04-23T16:20:51.205Z,39.06
2023-04-23T16:23:23.735Z,39.97
2023-04-23T16:25:52.724Z,40.54
2023-04-23T16:28:24.784Z,41.18
2023-04-23T16:30:54.001Z,41.12
2023-04-23T16:33:31.986Z,41.73
2023-04-23T16:52:33.597Z,45.01
2023-04-23T16:55:46.924Z,45.75
2023-04-23T17:00:09.027Z,47.42
2023-04-23T17:11:45.411Z,52.58
2023-04-23T17:37:13.276Z,56.75
2023-04-23T17:47:55.678Z,55.64
2023-04-23T18:09:40.776Z,55.76
2023-04-23T18:13:13.860Z,56.25
2023-04-23T18:46:07.170Z,56.87
2023-04-23T18:49:49.715Z,56.83
2023-04-23T18:53:17.073Z,56.89
2023-04-23T18:58:33.846Z,57.14
2023-04-23T19:01:09.351Z,57.65
2023-04-23T20:11:24.550Z,57.36
2023-04-23T20:15:12.758Z,57.29
2023-04-23T20:34:33.120Z,56.45
2023-04-23T20:37:35.142Z,56.28
2023-04-23T20:40:19.338Z,56.60
2023-04-23T20:46:18.553Z,56.14
2023-04-23T20:49:24.375Z,55.27
2023-04-23T20:52:04.813Z,54.13
2023-04-23T20:55:25.795Z,53.44
2023-04-23T20:58:52.287Z,53.17
2023-04-23T21:01:27.897Z,53.51
2023-04-23T21:04:35.482Z,53.51
2023-04-23T21:10:46.312Z,53.62
2023-04-23T21:15:02.580Z,53.01
2023-04-23T21:17:04.434Z,53.12
2023-04-23T21:23:27.324Z,53.17
2023-04-23T21:29:38.549Z,52.39
2023-04-23T21:32:59.343Z,52.44
2023-04-23T21:35:27.482Z,50.89
